Time;durP1;ratioP1;P1;durP2;ratioP2;P2;SDS_P1;SDS_P2;PMS_P1;PMS_P2;Temp;Humidity;BMP_temperature;BMP_pressure;BME280_temperature;BME280_humidity;BME280_pressure;Samples;Min_cycle;Max_cycle;Signal;HPM_P1;HPM_P2
2022/10/18 00:01:47;;;;;;;7.15;3.35;;;12.70;97.50;;;;;;5037686;28;20025;-67
2022/10/18 00:04:13;;;;;;;6.03;2.88;;;12.70;97.70;;;;;;5036683;28;20029;-66
2022/10/18 00:06:39;;;;;;;5.32;2.60;;;12.70;97.40;;;;;;5042260;28;20086;-66
2022/10/18 00:09:04;;;;;;;7.55;2.75;;;12.70;97.60;;;;;;5037488;28;20036;-65
2022/10/18 00:11:30;;;;;;;9.43;2.83;;;12.70;97.60;;;;;;5039838;28;20037;-66
2022/10/18 00:13:57;;;;;;;6.47;2.50;;;12.70;97.50;;;;;;5037548;28;20022;-66
2022/10/18 00:16:22;;;;;;;6.72;2.95;;;12.80;97.40;;;;;;5036653;28;20041;-67
2022/10/18 00:18:48;;;;;;;9.80;2.60;;;12.70;97.00;;;;;;5037217;28;20292;-67
2022/10/18 00:21:17;;;;;;;8.65;2.65;;;12.70;96.70;;;;;;5037585;28;20036;-67
2022/10/18 00:23:43;;;;;;;7.38;2.50;;;12.70;96.40;;;;;;5037222;28;20025;-67
2022/10/18 00:26:15;;;;;;;6.75;2.70;;;12.70;96.60;;;;;;5036860;28;20140;-65
2022/10/18 00:28:41;;;;;;;8.88;2.42;;;12.80;96.90;;;;;;5051002;28;20029;-65
2022/10/18 00:31:19;;;;;;;6.75;2.58;;;12.80;97.00;;;;;;5040266;28;20029;-65
2022/10/18 00:33:48;;;;;;;8.68;2.72;;;12.70;96.70;;;;;;5043813;28;20071;-65
2022/10/18 00:36:14;;;;;;;7.18;2.40;;;12.80;97.50;;;;;;5041879;28;20075;-65
2022/10/18 00:38:39;;;;;;;8.07;2.40;;;12.90;97.80;;;;;;5056459;28;20033;-67
2022/10/18 00:41:07;;;;;;;6.47;3.38;;;12.90;98.00;;;;;;5017387;28;20112;-67
2022/10/18 00:43:50;;;;;;;7.40;2.83;;;12.90;98.00;;;;;;5017845;28;20022;-67
2022/10/18 00:46:16;;;;;;;6.93;2.37;;;12.70;97.40;;;;;;5039420;28;20047;-67
2022/10/18 00:48:42;;;;;;;11.88;2.47;;;12.80;97.80;;;;;;5037097;28;20094;-67
2022/10/18 00:51:09;;;;;;;7.15;2.63;;;12.80;98.00;;;;;;5044928;28;20049;-67
2022/10/18 00:53:35;;;;;;;11.50;2.45;;;12.80;98.00;;;;;;5036961;28;20295;-67
2022/10/18 00:56:00;;;;;;;10.65;2.38;;;13.00;98.00;;;;;;5041845;28;20397;-67
2022/10/18 00:58:26;;;;;;;6.60;2.28;;;13.20;98.00;;;;;;5036910;28;20111;-67
2022/10/18 01:00:52;;;;;;;6.55;1.98;;;13.30;98.00;;;;;;5043205;28;20472;-66
2022/10/18 01:03:17;;;;;;;7.28;2.15;;;13.40;98.00;;;;;;5037016;28;20029;-66
2022/10/18 01:05:46;;;;;;;12.20;2.00;;;13.50;98.00;;;;;;5047589;28;20107;-67
2022/10/18 01:08:39;;;;;;;7.25;2.25;;;13.70;98.00;;;;;;5037350;28;20037;-67
2022/10/18 01:11:38;;;;;;;7.70;2.53;;;13.80;98.00;;;;;;5037612;28;20025;-67
2022/10/18 01:14:33;;;;;;;9.00;2.30;;;13.90;98.00;;;;;;5036127;28;20112;-66
2022/10/18 01:17:10;;;;;;;10.13;2.58;;;14.00;98.00;;;;;;5035469;28;20065;-67
2022/10/18 01:19:46;;;;;;;9.68;2.60;;;14.00;98.00;;;;;;5035148;28;20096;-66
2022/10/18 01:22:22;;;;;;;4.47;1.90;;;14.10;98.00;;;;;;5036231;28;20017;-67
2022/10/18 01:25:15;;;;;;;6.25;1.65;;;14.20;98.00;;;;;;5030685;28;20472;-66
2022/10/18 01:27:49;;;;;;;10.88;2.38;;;14.20;98.00;;;;;;5034484;28;20026;-67
2022/10/18 01:30:21;;;;;;;;;;;14.20;98.00;;;;;;5044144;28;20022;-67
2022/10/18 01:32:50;;;;;;;9.30;2.00;;;14.30;98.00;;;;;;5035216;28;19959;-67
2022/10/18 01:35:21;;;;;;;7.80;2.38;;;14.30;98.00;;;;;;5035919;28;20044;-67
2022/10/18 01:37:48;;;;;;;7.03;2.20;;;14.30;98.00;;;;;;5035590;28;20377;-67
2022/10/18 01:40:19;;;;;;;6.85;2.05;;;14.30;98.00;;;;;;5037310;28;20021;-67
2022/10/18 01:42:47;;;;;;;9.82;2.35;;;14.30;98.00;;;;;;5036077;28;20295;-67
2022/10/18 01:45:14;;;;;;;7.80;2.15;;;14.40;98.00;;;;;;5043210;28;20029;-66
2022/10/18 01:47:45;;;;;;;5.57;2.15;;;14.50;98.00;;;;;;5034342;28;20060;-66
2022/10/18 01:50:11;;;;;;;3.88;1.60;;;14.70;98.00;;;;;;5034444;28;20104;-67
2022/10/18 01:52:50;;;;;;;4.50;2.08;;;14.90;97.80;;;;;;5035755;28;20432;-66
2022/10/18 01:55:21;;;;;;;6.35;1.85;;;15.00;97.50;;;;;;5036368;28;20418;-67
2022/10/18 01:58:09;;;;;;;7.82;2.30;;;15.20;97.30;;;;;;5035394;28;20551;-67
2022/10/18 02:00:41;;;;;;;12.65;2.33;;;15.30;96.80;;;;;;5036456;28;20506;-67
2022/10/18 02:03:19;;;;;;;5.47;1.98;;;15.40;96.80;;;;;;5039209;28;20507;-67
2022/10/18 02:05:50;;;;;;;4.65;1.92;;;15.40;97.10;;;;;;5035272;28;20033;-66
2022/10/18 02:08:15;;;;;;;6.47;2.05;;;15.30;97.30;;;;;;5041114;28;20025;-66
2022/10/18 02:10:53;;;;;;;7.68;2.22;;;15.30;97.00;;;;;;5046644;28;20021;-67
2022/10/18 02:13:21;;;;;;;10.77;2.05;;;15.40;96.70;;;;;;5038640;28;20053;-67
2022/10/18 02:15:50;;;;;;;4.97;1.70;;;15.40;96.60;;;;;;5035564;28;20494;-67
2022/10/18 02:18:21;;;;;;;6.32;2.00;;;15.30;97.00;;;;;;5041314;28;20028;-66
2022/10/18 02:20:48;;;;;;;5.30;1.88;;;15.40;96.30;;;;;;5046646;28;20394;-66
2022/10/18 02:23:15;;;;;;;9.38;2.22;;;15.60;96.10;;;;;;5039196;28;20391;-67
2022/10/18 02:25:41;;;;;;;5.18;1.90;;;15.60;95.70;;;;;;5038491;28;20022;-67
2022/10/18 02:28:06;;;;;;;4.38;1.85;;;15.60;96.10;;;;;;5036868;28;20128;-67
2022/10/18 02:30:45;;;;;;;8.48;2.05;;;15.50;96.40;;;;;;5031023;28;20026;-66
2022/10/18 02:33:24;;;;;;;6.45;1.90;;;15.50;97.00;;;;;;5028595;28;20021;-66
2022/10/18 02:35:56;;;;;;;6.82;1.85;;;15.40;96.60;;;;;;5035494;28;20437;-66
2022/10/18 02:38:24;;;;;;;12.35;2.30;;;15.30;97.00;;;;;;5047171;28;20028;-66
2022/10/18 02:40:50;;;;;;;7.70;2.65;;;15.30;97.30;;;;;;5035160;28;20028;-67
2022/10/18 02:43:18;;;;;;;10.13;2.00;;;15.20;97.60;;;;;;5051982;28;20314;-66
2022/10/18 02:45:44;;;;;;;6.15;1.63;;;15.20;97.70;;;;;;5047108;28;20086;-66
2022/10/18 02:48:09;;;;;;;8.30;1.80;;;15.20;97.60;;;;;;5030013;28;20038;-67
2022/10/18 02:50:35;;;;;;;7.85;2.42;;;15.10;98.00;;;;;;5038815;28;20472;-66
2022/10/18 02:53:00;;;;;;;6.18;1.92;;;15.00;98.00;;;;;;5040073;28;20033;-66
2022/10/18 02:55:26;;;;;;;4.03;1.80;;;14.90;98.00;;;;;;5036836;28;20029;-66
2022/10/18 02:57:52;;;;;;;5.95;2.10;;;14.80;98.00;;;;;;5051555;28;20022;-65
2022/10/18 03:00:17;;;;;;;9.43;2.03;;;14.80;98.00;;;;;;5039123;28;20040;-65
2022/10/18 03:02:43;;;;;;;4.72;1.90;;;14.80;98.00;;;;;;5049894;28;20025;-66
2022/10/18 03:05:09;;;;;;;4.78;2.03;;;14.70;98.00;;;;;;5038641;28;20036;-65
2022/10/18 03:07:34;;;;;;;7.32;2.17;;;14.60;98.00;;;;;;5047517;28;20032;-65
2022/10/18 03:10:00;;;;;;;10.02;2.10;;;14.50;98.00;;;;;;5037500;28;20153;-66
2022/10/18 03:12:28;;;;;;;10.57;2.30;;;14.40;98.00;;;;;;5038551;28;20428;-67
2022/10/18 03:14:54;;;;;;;6.70;2.30;;;14.40;98.00;;;;;;5043503;28;20029;-67
2022/10/18 03:17:20;;;;;;;3.88;1.83;;;14.40;98.00;;;;;;5043878;28;20028;-67
2022/10/18 03:19:45;;;;;;;6.15;2.38;;;14.50;98.00;;;;;;5040636;28;20429;-66
2022/10/18 03:22:11;;;;;;;8.38;2.38;;;14.60;98.00;;;;;;5038394;28;20449;-66
2022/10/18 03:24:36;;;;;;;5.75;2.10;;;14.70;98.00;;;;;;5053643;28;20022;-67
2022/10/18 03:27:02;;;;;;;4.93;1.88;;;14.90;98.00;;;;;;5037529;28;20061;-66
2022/10/18 03:29:28;;;;;;;7.75;2.55;;;15.00;98.00;;;;;;5040762;28;20041;-68
2022/10/18 03:31:53;;;;;;;7.13;2.05;;;15.20;98.00;;;;;;5044395;28;20036;-66
2022/10/18 03:34:19;;;;;;;6.82;2.00;;;15.30;98.00;;;;;;5037675;28;20029;-66
2022/10/18 03:36:45;;;;;;;6.53;2.10;;;15.30;98.00;;;;;;5037436;28;20026;-66
2022/10/18 03:39:11;;;;;;;7.85;2.35;;;15.40;98.00;;;;;;5038411;28;20033;-66
2022/10/18 03:41:36;;;;;;;4.03;1.70;;;15.40;97.80;;;;;;5041851;28;20036;-67
2022/10/18 03:44:02;;;;;;;6.13;1.95;;;15.50;98.00;;;;;;5038231;28;20017;-67
2022/10/18 03:46:31;;;;;;;10.23;2.60;;;15.50;98.00;;;;;;5038270;28;20034;-66
2022/10/18 03:48:56;;;;;;;4.68;1.95;;;15.40;98.00;;;;;;5036763;28;20037;-66
2022/10/18 03:51:22;;;;;;;6.03;2.10;;;15.40;98.00;;;;;;5038646;28;20064;-67
2022/10/18 03:53:48;;;;;;;5.05;2.15;;;15.40;98.00;;;;;;5022153;28;20028;-66
2022/10/18 03:56:13;;;;;;;6.97;2.67;;;15.40;98.00;;;;;;5036819;28;20395;-66
2022/10/18 03:58:39;;;;;;;8.38;2.67;;;15.30;98.00;;;;;;5020687;28;20039;-66
2022/10/18 04:01:05;;;;;;;6.63;2.30;;;15.30;98.00;;;;;;5037535;28;20100;-66
2022/10/18 04:03:31;;;;;;;7.50;1.95;;;15.30;98.00;;;;;;5037061;28;20026;-66
2022/10/18 04:05:59;;;;;;;8.15;2.28;;;15.20;98.00;;;;;;5044144;28;20083;-66
2022/10/18 04:08:25;;;;;;;5.18;2.72;;;15.10;98.00;;;;;;5037339;28;20025;-66
2022/10/18 04:10:51;;;;;;;6.38;2.15;;;15.00;98.00;;;;;;5042271;28;20029;-68
2022/10/18 04:13:17;;;;;;;9.63;2.28;;;14.90;98.00;;;;;;5037661;28;20045;-66
2022/10/18 04:15:43;;;;;;;6.47;2.22;;;14.90;98.00;;;;;;5034673;28;20033;-66
2022/10/18 04:18:08;;;;;;;8.07;2.40;;;14.80;98.00;;;;;;5032258;28;20025;-66
2022/10/18 04:20:34;;;;;;;10.07;2.33;;;14.70;98.00;;;;;;5033853;28;20075;-66
2022/10/18 04:23:00;;;;;;;8.10;2.42;;;14.60;98.00;;;;;;5031719;28;20190;-65
2022/10/18 04:25:27;;;;;;;7.53;2.40;;;14.40;98.00;;;;;;5031035;28;20108;-65
2022/10/18 04:27:54;;;;;;;7.03;2.10;;;14.40;98.00;;;;;;5033735;28;20105;-64
2022/10/18 04:30:20;;;;;;;8.20;2.38;;;14.40;98.00;;;;;;5032249;28;20034;-66
2022/10/18 04:32:46;;;;;;;8.30;2.65;;;14.40;98.00;;;;;;5031046;28;20030;-65
2022/10/18 04:35:12;;;;;;;8.60;2.35;;;14.40;98.00;;;;;;5036468;28;20064;-67
2022/10/18 04:37:37;;;;;;;9.32;2.97;;;14.50;98.00;;;;;;5036091;28;20017;-66
2022/10/18 04:40:03;;;;;;;6.40;2.42;;;14.60;98.00;;;;;;5039735;28;20325;-68
2022/10/18 04:42:29;;;;;;;15.52;6.90;;;14.70;98.00;;;;;;5038985;28;20031;-66
2022/10/18 04:44:55;;;;;;;6.45;2.90;;;14.80;98.00;;;;;;5052267;28;20025;-67
2022/10/18 04:47:20;;;;;;;4.97;2.40;;;14.80;98.00;;;;;;5035284;28;20113;-67
2022/10/18 04:49:46;;;;;;;7.40;2.55;;;14.90;98.00;;;;;;5040325;28;20041;-67
2022/10/18 04:52:12;;;;;;;7.78;2.70;;;15.00;98.00;;;;;;5040018;28;20090;-67
2022/10/18 04:54:37;;;;;;;6.45;3.03;;;15.00;98.00;;;;;;5046960;28;20029;-67
2022/10/18 04:57:03;;;;;;;5.35;2.22;;;15.00;98.00;;;;;;5038342;28;20104;-67
2022/10/18 04:59:29;;;;;;;5.93;2.17;;;14.90;98.00;;;;;;5034693;28;20022;-67
2022/10/18 05:01:54;;;;;;;9.90;2.63;;;14.90;98.00;;;;;;5035525;28;20051;-67
2022/10/18 05:04:20;;;;;;;5.03;2.70;;;14.90;98.00;;;;;;5035319;28;20060;-67
2022/10/18 05:06:46;;;;;;;8.15;2.88;;;15.00;98.00;;;;;;5036708;28;20108;-67
2022/10/18 05:09:11;;;;;;;8.20;2.70;;;15.20;98.00;;;;;;5034333;28;20053;-67
2022/10/18 05:11:37;;;;;;;9.23;3.00;;;15.40;98.00;;;;;;5032992;28;20045;-67
2022/10/18 05:14:03;;;;;;;6.47;2.42;;;15.50;97.80;;;;;;5035111;28;20017;-67
2022/10/18 05:16:30;;;;;;;7.72;3.15;;;15.40;98.00;;;;;;5033527;28;20029;-67
2022/10/18 05:18:56;;;;;;;10.23;3.40;;;15.40;98.00;;;;;;5035784;28;20377;-67
2022/10/18 05:21:22;;;;;;;8.85;4.15;;;15.20;98.00;;;;;;5028854;28;20038;-67
2022/10/18 05:23:47;;;;;;;6.82;2.90;;;15.00;98.00;;;;;;5031312;28;20061;-67
2022/10/18 05:26:13;;;;;;;6.97;2.85;;;14.80;98.00;;;;;;5040612;28;20029;-67
2022/10/18 05:28:38;;;;;;;6.13;2.70;;;14.70;98.00;;;;;;5044952;28;20029;-66
2022/10/18 05:31:06;;;;;;;8.32;3.40;;;14.50;98.00;;;;;;5046627;28;20348;-67
2022/10/18 05:33:32;;;;;;;11.65;2.78;;;14.40;98.00;;;;;;5039302;28;20314;-67
2022/10/18 05:35:58;;;;;;;11.65;3.25;;;14.20;98.00;;;;;;5033390;28;20113;-67
2022/10/18 05:38:24;;;;;;;7.25;3.10;;;14.20;98.00;;;;;;5033298;28;20105;-66
2022/10/18 05:40:49;;;;;;;10.68;3.10;;;14.20;98.00;;;;;;5030941;28;20257;-67
2022/10/18 05:43:16;;;;;;;7.00;2.60;;;14.30;98.00;;;;;;5029028;28;20454;-67
2022/10/18 05:45:49;;;;;;;7.43;3.00;;;14.40;98.00;;;;;;5025142;28;20025;-67
2022/10/18 05:48:15;;;;;;;9.00;3.63;;;14.30;98.00;;;;;;5031538;28;20076;-67
2022/10/18 05:50:41;;;;;;;8.50;3.55;;;14.20;98.00;;;;;;5026015;28;151284;-67
2022/10/18 05:53:06;;;;;;;7.25;3.13;;;14.10;98.00;;;;;;5023984;28;20033;-65
2022/10/18 05:55:32;;;;;;;7.47;3.03;;;13.90;98.00;;;;;;5034774;28;20025;-65
2022/10/18 05:57:58;;;;;;;7.18;3.20;;;13.70;98.00;;;;;;5033557;28;20096;-65
2022/10/18 06:00:23;;;;;;;8.63;3.65;;;13.60;97.20;;;;;;5035654;28;20021;-65
2022/10/18 06:02:49;;;;;;;8.70;3.47;;;13.50;97.20;;;;;;5036793;28;20022;-65
2022/10/18 06:05:15;;;;;;;12.82;3.60;;;13.50;96.60;;;;;;5038584;28;20461;-67
2022/10/18 06:07:40;;;;;;;7.00;3.50;;;13.40;96.60;;;;;;5035982;28;20096;-66
2022/10/18 06:10:06;;;;;;;7.65;3.33;;;13.40;96.20;;;;;;5034695;28;20022;-66
2022/10/18 06:12:34;;;;;;;7.60;3.45;;;13.50;96.50;;;;;;5035114;28;20030;-66
2022/10/18 06:15:03;;;;;;;7.30;3.80;;;13.40;96.40;;;;;;5035101;28;20082;-67
2022/10/18 06:17:28;;;;;;;10.10;3.97;;;13.40;95.70;;;;;;5020437;28;20037;-67
2022/10/18 06:19:54;;;;;;;8.55;4.40;;;13.40;96.00;;;;;;5034029;28;20014;-66
2022/10/18 06:22:20;;;;;;;12.10;5.25;;;13.50;95.80;;;;;;5030526;28;20022;-66
2022/10/18 06:24:45;;;;;;;7.30;4.05;;;13.60;96.20;;;;;;5019624;28;20040;-66
2022/10/18 06:27:11;;;;;;;9.95;4.38;;;13.80;96.50;;;;;;5016080;28;20437;-66
2022/10/18 06:29:40;;;;;;;9.48;4.82;;;14.00;97.10;;;;;;5016323;28;20040;-66
2022/10/18 06:32:07;;;;;;;10.70;4.60;;;14.20;98.00;;;;;;5016398;28;20072;-66
2022/10/18 06:34:33;;;;;;;8.88;4.82;;;14.40;98.00;;;;;;5026337;28;20052;-67
2022/10/18 06:36:59;;;;;;;11.65;4.35;;;14.60;98.00;;;;;;5019225;28;20123;-66
2022/10/18 06:39:26;;;;;;;8.48;3.60;;;14.80;98.00;;;;;;5017357;28;21613;-66
2022/10/18 06:41:51;;;;;;;7.95;3.63;;;14.90;98.00;;;;;;5015194;28;20040;-66
2022/10/18 06:44:17;;;;;;;9.45;3.88;;;15.20;98.00;;;;;;5030048;28;20022;-66
2022/10/18 06:46:45;;;;;;;10.13;3.80;;;15.30;98.00;;;;;;5022935;28;20033;-66
2022/10/18 06:49:11;;;;;;;9.82;3.35;;;15.50;98.00;;;;;;5023318;28;20025;-67
2022/10/18 06:51:37;;;;;;;6.35;3.63;;;15.70;98.00;;;;;;5019269;28;20431;-66
2022/10/18 06:54:03;;;;;;;10.50;3.50;;;15.90;98.00;;;;;;5017570;28;20033;-66
2022/10/18 06:56:29;;;;;;;7.25;3.38;;;16.20;98.00;;;;;;5015799;28;20029;-67
2022/10/18 06:58:55;;;;;;;7.18;3.10;;;16.50;97.40;;;;;;5037955;28;20128;-67
2022/10/18 07:01:21;;;;;;;6.65;3.10;;;16.80;97.10;;;;;;5040698;28;20065;-67
2022/10/18 07:03:48;;;;;;;7.85;3.05;;;17.10;96.20;;;;;;5035079;28;20033;-67
2022/10/18 07:06:15;;;;;;;13.68;3.88;;;17.40;95.10;;;;;;5035446;28;20407;-67
2022/10/18 07:08:41;;;;;;;8.32;2.70;;;17.60;95.00;;;;;;5053162;28;20057;-67
2022/10/18 07:11:13;;;;;;;12.73;3.55;;;17.80;94.00;;;;;;5052208;28;20028;-67
2022/10/18 07:13:38;;;;;;;8.63;3.22;;;18.00;93.30;;;;;;5030493;28;20036;-67
2022/10/18 07:16:09;;;;;;;8.00;3.50;;;18.20;91.80;;;;;;5036269;28;20029;-67
2022/10/18 07:18:38;;;;;;;7.05;3.10;;;18.30;91.60;;;;;;5055229;28;20028;-66
2022/10/18 07:21:06;;;;;;;12.65;3.13;;;18.40;91.80;;;;;;5055331;28;20025;-66
2022/10/18 07:23:38;;;;;;;5.43;2.70;;;18.50;89.80;;;;;;5055285;28;20410;-66
2022/10/18 07:26:15;;;;;;;6.72;3.03;;;18.80;89.80;;;;;;5054120;28;20057;-66
2022/10/18 07:28:41;;;;;;;9.10;2.83;;;18.90;89.40;;;;;;5041751;28;20026;-67
2022/10/18 07:31:08;;;;;;;9.07;2.63;;;19.00;89.10;;;;;;5035194;28;20109;-66
2022/10/18 07:33:36;;;;;;;11.55;3.60;;;19.00;89.30;;;;;;5035198;28;20034;-66
2022/10/18 07:36:04;;;;;;;7.75;3.17;;;19.00;88.40;;;;;;5036662;28;20056;-66
2022/10/18 07:38:30;;;;;;;7.28;2.90;;;19.00;88.50;;;;;;5038925;28;20127;-66
2022/10/18 07:41:05;;;;;;;6.53;3.03;;;19.10;88.90;;;;;;5037556;28;20429;-66
2022/10/18 07:43:31;;;;;;;6.85;3.40;;;19.20;88.80;;;;;;5038037;28;20028;-66
2022/10/18 07:46:00;;;;;;;9.57;2.90;;;19.30;87.80;;;;;;5038293;28;20045;-66
2022/10/18 07:48:26;;;;;;;8.27;3.08;;;19.30;87.90;;;;;;5038550;28;20415;-67
2022/10/18 07:50:52;;;;;;;6.82;2.80;;;19.40;87.40;;;;;;5038456;28;20164;-67
2022/10/18 07:53:18;;;;;;;7.40;2.78;;;19.40;87.00;;;;;;5038524;28;20322;-67
2022/10/18 07:55:43;;;;;;;7.97;2.83;;;19.50;87.00;;;;;;5035877;28;20026;-67
2022/10/18 07:58:10;;;;;;;6.35;2.58;;;19.70;86.10;;;;;;5038499;28;20410;-66
2022/10/18 08:00:35;;;;;;;7.30;2.50;;;19.80;85.70;;;;;;5038141;28;20034;-67
2022/10/18 08:03:01;;;;;;;6.50;2.53;;;19.90;85.90;;;;;;5038303;28;20108;-66
2022/10/18 08:05:27;;;;;;;8.02;2.90;;;20.10;84.90;;;;;;5038396;28;20021;-66
2022/10/18 08:07:54;;;;;;;7.28;2.65;;;20.30;83.80;;;;;;5038439;28;20026;-67
2022/10/18 08:10:23;;;;;;;7.20;2.75;;;20.50;84.50;;;;;;5018860;28;20469;-67
2022/10/18 08:12:50;;;;;;;6.00;2.83;;;20.90;82.70;;;;;;5038169;28;20120;-67
2022/10/18 08:15:16;;;;;;;9.50;2.97;;;20.90;81.90;;;;;;5038172;28;20318;-67
2022/10/18 08:17:43;;;;;;;5.72;2.40;;;20.70;82.70;;;;;;5037865;28;20104;-66
2022/10/18 08:20:12;;;;;;;8.82;2.70;;;20.50;83.90;;;;;;5038210;28;20437;-66
2022/10/18 08:22:37;;;;;;;8.23;3.00;;;20.80;83.20;;;;;;5038069;28;20403;-67
2022/10/18 08:25:03;;;;;;;7.18;2.83;;;21.80;80.10;;;;;;5036118;28;20029;-67
2022/10/18 08:27:29;;;;;;;7.30;2.60;;;23.00;77.90;;;;;;5037428;28;20326;-67
2022/10/18 08:29:54;;;;;;;10.23;2.97;;;24.20;76.20;;;;;;5036669;28;20026;-67
2022/10/18 08:32:20;;;;;;;7.82;2.75;;;24.70;74.00;;;;;;5037824;28;20049;-67
2022/10/18 08:34:46;;;;;;;9.75;2.53;;;23.90;74.20;;;;;;5037750;28;20158;-67
2022/10/18 08:37:11;;;;;;;8.65;3.45;;;23.20;75.70;;;;;;5036814;28;20120;-66
2022/10/18 08:39:37;;;;;;;10.07;3.20;;;22.20;78.30;;;;;;5037775;28;20036;-66
2022/10/18 08:42:43;;;;;;;8.00;3.22;;;21.40;80.70;;;;;;5036295;28;20021;-67
2022/10/18 08:45:11;;;;;;;9.80;2.60;;;20.80;82.80;;;;;;5020290;28;20041;-66
2022/10/18 08:47:40;;;;;;;9.32;3.30;;;20.60;84.30;;;;;;5036594;28;20041;-66
2022/10/18 08:50:29;;;;;;;8.50;3.00;;;20.40;84.20;;;;;;5037405;28;20159;-65
2022/10/18 08:53:16;;;;;;;8.85;3.33;;;20.20;84.60;;;;;;5037336;28;20061;-65
2022/10/18 08:56:22;;;;;;;8.80;2.95;;;20.00;85.60;;;;;;5035821;28;20041;-64
2022/10/18 08:58:49;;;;;;;12.85;2.97;;;19.80;86.30;;;;;;5037128;28;20068;-65
2022/10/18 09:01:39;;;;;;;8.25;3.10;;;19.70;86.50;;;;;;5037357;28;20022;-67
2022/10/18 09:04:17;;;;;;;10.38;3.30;;;19.90;86.00;;;;;;5037144;28;20029;-66
2022/10/18 09:07:04;;;;;;;9.90;2.92;;;20.40;84.60;;;;;;5036413;28;20029;-66
2022/10/18 09:09:51;;;;;;;6.60;2.88;;;20.70;84.10;;;;;;5036995;28;20087;-66
2022/10/18 09:12:30;;;;;;;5.75;2.70;;;20.90;83.90;;;;;;5036876;28;20299;-66
2022/10/18 09:15:07;;;;;;;9.60;2.67;;;20.90;83.90;;;;;;5034977;28;20031;-66
2022/10/18 09:17:58;;;;;;;9.73;3.40;;;20.80;83.80;;;;;;5045602;28;20037;-66
2022/10/18 09:20:51;;;;;;;10.77;3.22;;;21.10;83.60;;;;;;5046223;28;20521;-67
2022/10/18 09:23:30;;;;;;;7.43;2.63;;;21.50;82.20;;;;;;5036432;28;20021;-66
2022/10/18 09:26:20;;;;;;;7.40;2.83;;;21.50;82.80;;;;;;5021454;28;20025;-66
2022/10/18 09:29:23;;;;;;;8.75;3.22;;;21.60;82.50;;;;;;5021893;28;20036;-67
2022/10/18 09:31:55;;;;;;;9.45;2.95;;;21.40;83.10;;;;;;5036680;28;20029;-67
2022/10/18 09:34:52;;;;;;;8.00;3.08;;;21.10;83.70;;;;;;5034775;28;20382;-66
2022/10/18 09:37:19;;;;;;;8.77;3.05;;;20.90;84.20;;;;;;5029226;28;20040;-66
2022/10/18 09:39:47;;;;;;;11.52;3.00;;;21.00;84.60;;;;;;5033439;28;20309;-66
2022/10/18 09:42:27;;;;;;;8.70;2.92;;;21.40;84.10;;;;;;5033512;28;20018;-66
2022/10/18 09:44:59;;;;;;;11.48;2.97;;;21.20;84.30;;;;;;5036612;28;20076;-66
2022/10/18 09:47:33;;;;;;;6.82;2.88;;;21.10;84.20;;;;;;5036210;28;20025;-66
2022/10/18 09:50:25;;;;;;;11.93;3.03;;;20.90;84.30;;;;;;5033635;28;20426;-66
2022/10/18 09:53:08;;;;;;;7.32;3.03;;;20.90;84.60;;;;;;5035503;28;20072;-67
2022/10/18 09:55:57;;;;;;;8.50;3.10;;;20.90;85.30;;;;;;5033710;28;20029;-66
2022/10/18 09:58:25;;;;;;;7.50;2.95;;;21.00;84.30;;;;;;5031956;28;20018;-66
2022/10/18 10:00:52;;;;;;;9.00;3.08;;;21.00;84.20;;;;;;5016534;28;20026;-67
2022/10/18 10:03:18;;;;;;;6.55;2.80;;;21.00;84.70;;;;;;5030126;28;20025;-66
2022/10/18 10:05:44;;;;;;;7.80;2.85;;;20.90;84.50;;;;;;5034010;28;20622;-66
2022/10/18 10:08:10;;;;;;;8.90;2.88;;;20.90;84.90;;;;;;5024431;28;20049;-66
2022/10/18 10:10:39;;;;;;;10.05;3.10;;;21.10;85.10;;;;;;5034633;28;20072;-66
2022/10/18 10:13:16;;;;;;;6.57;2.80;;;21.30;83.50;;;;;;5034361;28;20025;-67
2022/10/18 10:16:01;;;;;;;7.75;2.63;;;21.40;83.60;;;;;;5034610;28;20422;-67
2022/10/18 10:18:32;;;;;;;10.18;2.38;;;21.40;83.10;;;;;;5036103;28;20075;-66
2022/10/18 10:21:02;;;;;;;8.93;2.38;;;21.10;84.10;;;;;;5034675;28;20113;-66
2022/10/18 10:23:44;;;;;;;7.72;2.75;;;21.00;84.20;;;;;;5031174;28;20022;-66
2022/10/18 10:26:32;;;;;;;6.57;2.70;;;20.90;84.90;;;;;;5029729;28;20046;-67
2022/10/18 10:28:58;;;;;;;8.23;2.97;;;21.00;84.30;;;;;;5028948;28;20046;-66
2022/10/18 10:31:23;;;;;;;7.95;2.75;;;21.00;84.40;;;;;;5032642;28;20086;-66
2022/10/18 10:34:26;;;;;;;6.13;2.80;;;21.10;84.50;;;;;;5027769;28;20030;-66
2022/10/18 10:36:54;;;;;;;10.60;2.97;;;21.10;84.40;;;;;;5032987;28;20030;-66
2022/10/18 10:39:23;;;;;;;7.47;3.20;;;21.00;84.70;;;;;;5035743;28;20315;-66
2022/10/18 10:41:51;;;;;;;8.45;3.35;;;20.90;85.80;;;;;;5034488;28;20026;-67
2022/10/18 10:44:18;;;;;;;9.30;3.20;;;21.00;85.60;;;;;;5035825;28;20022;-67
2022/10/18 10:46:45;;;;;;;8.27;3.13;;;21.00;86.50;;;;;;5035753;28;20030;-66
2022/10/18 10:49:33;;;;;;;9.25;2.75;;;21.10;85.90;;;;;;5035816;28;20030;-67
2022/10/18 10:52:02;;;;;;;10.80;2.85;;;20.90;84.90;;;;;;5014839;28;20054;-66
2022/10/18 10:54:34;;;;;;;8.77;3.08;;;20.80;86.10;;;;;;5025495;28;20453;-66
2022/10/18 10:57:16;;;;;;;8.60;3.08;;;21.10;85.40;;;;;;5034333;28;20026;-66
2022/10/18 10:59:47;;;;;;;6.55;2.60;;;21.90;83.90;;;;;;5033782;28;20022;-66
2022/10/18 11:02:13;;;;;;;6.57;2.70;;;23.00;80.10;;;;;;5018212;28;20026;-66
2022/10/18 11:04:40;;;;;;;10.52;2.78;;;23.40;79.80;;;;;;5015863;28;20072;-66
2022/10/18 11:07:13;;;;;;;8.13;3.05;;;23.60;79.40;;;;;;5015923;28;20038;-67
2022/10/18 11:09:41;;;;;;;11.33;2.40;;;24.30;78.00;;;;;;5015486;28;20292;-66
2022/10/18 11:12:25;;;;;;;6.68;2.67;;;24.80;77.20;;;;;;5018815;28;20026;-67
2022/10/18 11:15:12;;;;;;;10.10;2.97;;;24.30;76.60;;;;;;5026687;28;20093;-67
2022/10/18 11:17:43;;;;;;;10.15;2.97;;;23.40;78.40;;;;;;5039311;28;20032;-66
2022/10/18 11:20:18;;;;;;;9.07;2.70;;;22.60;80.90;;;;;;5039113;28;20026;-67
2022/10/18 11:23:05;;;;;;;9.27;2.80;;;22.20;81.90;;;;;;5039183;28;20363;-66
2022/10/18 11:25:52;;;;;;;8.68;2.90;;;22.10;82.10;;;;;;5036246;28;20030;-66
2022/10/18 11:28:35;;;;;;;9.35;2.35;;;22.50;82.20;;;;;;5036520;28;20516;-66
2022/10/18 11:31:20;;;;;;;8.07;2.58;;;23.70;79.70;;;;;;5037935;28;20037;-66
2022/10/18 11:33:52;;;;;;;8.98;2.28;;;24.40;78.10;;;;;;5038915;28;20029;-66
2022/10/18 11:36:28;;;;;;;7.53;2.67;;;24.60;76.40;;;;;;5038973;28;20361;-66
2022/10/18 11:39:02;;;;;;;7.50;2.55;;;24.50;77.20;;;;;;5038045;28;20021;-66
2022/10/18 11:41:59;;;;;;;5.32;2.25;;;24.50;76.70;;;;;;5037606;28;20025;-66
2022/10/18 11:44:52;;;;;;;8.18;2.53;;;24.20;77.10;;;;;;5038626;28;20029;-65
2022/10/18 11:47:30;;;;;;;8.63;2.33;;;24.10;77.40;;;;;;5038742;28;20100;-65
2022/10/18 11:49:56;;;;;;;8.77;2.10;;;24.40;76.30;;;;;;5038687;28;20064;-65
2022/10/18 11:52:37;;;;;;;6.88;1.90;;;24.10;76.60;;;;;;5037184;28;20073;-65
2022/10/18 11:55:21;;;;;;;8.68;2.03;;;23.90;75.90;;;;;;5037327;28;20036;-66
2022/10/18 11:58:06;;;;;;;;;;;24.10;76.40;;;;;;5038835;28;20175;-67
2022/10/18 12:00:51;;;;;;;12.50;2.50;;;23.60;76.80;;;;;;5038189;28;20324;-67
2022/10/18 12:03:22;;;;;;;8.57;2.25;;;23.50;77.80;;;;;;5020306;28;20445;-66
2022/10/18 12:05:49;;;;;;;12.77;2.35;;;23.40;78.30;;;;;;5037514;28;20021;-66
2022/10/18 12:08:21;;;;;;;6.75;2.03;;;23.40;77.90;;;;;;5038415;28;20022;-67
2022/10/18 12:10:55;;;;;;;8.38;2.20;;;23.70;77.30;;;;;;5037053;28;20022;-67
2022/10/18 12:13:45;;;;;;;7.97;2.50;;;23.70;77.10;;;;;;5038102;28;20034;-66
2022/10/18 12:16:11;;;;;;;8.27;2.42;;;23.40;77.70;;;;;;5038166;28;20037;-67
2022/10/18 12:18:54;;;;;;;7.55;2.40;;;23.10;79.50;;;;;;5037951;28;20462;-66
2022/10/18 12:21:22;;;;;;;7.95;2.70;;;23.40;78.40;;;;;;5036359;28;20034;-66
2022/10/18 12:24:17;;;;;;;8.35;2.58;;;22.90;79.60;;;;;;5037149;28;20029;-66
2022/10/18 12:26:47;;;;;;;8.02;2.72;;;22.40;81.20;;;;;;5036878;28;20025;-66
2022/10/18 12:29:39;;;;;;;7.25;2.85;;;22.10;82.30;;;;;;5037218;28;20029;-66
2022/10/18 12:32:18;;;;;;;8.05;2.95;;;21.90;83.00;;;;;;5036320;28;20030;-66
2022/10/18 12:35:01;;;;;;;6.82;2.80;;;21.90;83.50;;;;;;5037782;28;20108;-66
2022/10/18 12:37:56;;;;;;;6.25;2.53;;;22.40;83.00;;;;;;5037502;28;20044;-66
2022/10/18 12:40:24;;;;;;;8.05;2.80;;;22.70;80.60;;;;;;5036620;28;20021;-67
2022/10/18 12:42:51;;;;;;;7.15;2.88;;;22.50;81.80;;;;;;5035847;28;20061;-67
2022/10/18 12:45:32;;;;;;;10.93;3.20;;;22.40;83.00;;;;;;5036768;28;20048;-66
2022/10/18 12:48:05;;;;;;;8.50;2.50;;;22.50;81.90;;;;;;5037569;28;20037;-67
2022/10/18 12:50:38;;;;;;;;;;;22.40;83.10;;;;;;5035629;28;20025;-67
2022/10/18 12:53:09;;;;;;;7.18;2.70;;;22.60;82.30;;;;;;5036626;28;19960;-66
2022/10/18 12:55:41;;;;;;;7.78;2.88;;;22.50;82.40;;;;;;5035996;28;20357;-66
2022/10/18 12:58:12;;;;;;;9.18;2.53;;;22.40;82.70;;;;;;5034284;28;20026;-66
2022/10/18 13:00:40;;;;;;;5.93;2.60;;;22.10;83.60;;;;;;5044072;28;20112;-66
2022/10/18 13:03:09;;;;;;;6.22;2.70;;;22.10;83.80;;;;;;5054435;28;20021;-66
2022/10/18 13:05:46;;;;;;;5.38;2.28;;;22.30;83.50;;;;;;5042150;28;20044;-67